Terminal Aerodrome Forecast
Issued by NWS

Current Version | Previous Version | Text Only | Print | Product List | Glossary On
Versions: 1 2 3 4 5 6 7 8 9 10 11 12 13 14 15 16 17 18 19 20 21 22 23 24 25 26 27
000
FTUS41 KOKX 230200 AAA
TAFTEB
TAF AMD
KTEB 230233Z 2303/2324 22008KT P6SM SCT050 BKN100 WS020/26045KT
     FM230600 23004KT P6SM BKN100 WS020/26045KT
     FM231500 21008KT P6SM BKN100
     FM232000 18007KT P6SM SCT060 BKN100=

USA.gov is the U.S. government's official web portal to all federal, state and local government web resources and services.